sensor_id;sensor_type;location;lat;lon;timestamp;pressure;altitude;pressure_sealevel;temperature;humidity
36254;BME280;22291;52.250;21.228;2023-04-03T00:01:20;100799.45;;;1.43;71.02
36254;BME280;22291;52.250;21.228;2023-04-03T00:03:46;100812.67;;;1.38;70.86
36254;BME280;22291;52.250;21.228;2023-04-03T00:06:14;100812.56;;;1.33;70.82
36254;BME280;22291;52.250;21.228;2023-04-03T00:08:42;100818.89;;;1.29;70.85
36254;BME280;22291;52.250;21.228;2023-04-03T00:11:10;100812.87;;;1.22;70.94
36254;BME280;22291;52.250;21.228;2023-04-03T00:13:39;100818.62;;;1.16;70.79
36254;BME280;22291;52.250;21.228;2023-04-03T00:16:08;100816.66;;;1.11;71.03
36254;BME280;22291;52.250;21.228;2023-04-03T00:18:38;100825.11;;;1.08;70.84
36254;BME280;22291;52.250;21.228;2023-04-03T00:21:07;100816.73;;;1.02;70.82
36254;BME280;22291;52.250;21.228;2023-04-03T00:23:35;100827.27;;;0.97;70.94
36254;BME280;22291;52.250;21.228;2023-04-03T00:26:02;100822.63;;;0.92;71.11
36254;BME280;22291;52.250;21.228;2023-04-03T00:28:29;100823.09;;;0.89;71.14
36254;BME280;22291;52.250;21.228;2023-04-03T00:30:56;100826.97;;;0.84;70.65
36254;BME280;22291;52.250;21.228;2023-04-03T00:33:24;100822.05;;;0.79;70.73
36254;BME280;22291;52.250;21.228;2023-04-03T00:35:50;100825.39;;;0.74;70.77
36254;BME280;22291;52.250;21.228;2023-04-03T00:38:18;100826.08;;;0.69;70.83
36254;BME280;22291;52.250;21.228;2023-04-03T00:40:47;100819.30;;;0.64;70.83
36254;BME280;22291;52.250;21.228;2023-04-03T00:43:22;100824.28;;;0.61;70.69
36254;BME280;22291;52.250;21.228;2023-04-03T00:45:56;100824.16;;;0.55;70.74
36254;BME280;22291;52.250;21.228;2023-04-03T00:48:32;100824.33;;;0.51;70.84
36254;BME280;22291;52.250;21.228;2023-04-03T00:51:13;100829.80;;;0.47;70.61
36254;BME280;22291;52.250;21.228;2023-04-03T00:53:44;100828.12;;;0.44;70.97
36254;BME280;22291;52.250;21.228;2023-04-03T00:56:17;100828.30;;;0.40;70.82
36254;BME280;22291;52.250;21.228;2023-04-03T00:58:57;100824.75;;;0.36;70.72
36254;BME280;22291;52.250;21.228;2023-04-03T01:01:30;100832.61;;;0.31;70.70
36254;BME280;22291;52.250;21.228;2023-04-03T01:04:02;100829.82;;;0.26;70.59
36254;BME280;22291;52.250;21.228;2023-04-03T01:06:36;100832.63;;;0.22;70.56
36254;BME280;22291;52.250;21.228;2023-04-03T01:09:02;100833.83;;;0.17;70.57
36254;BME280;22291;52.250;21.228;2023-04-03T01:11:29;100834.52;;;0.12;70.52
36254;BME280;22291;52.250;21.228;2023-04-03T01:13:57;100837.55;;;0.07;70.53
36254;BME280;22291;52.250;21.228;2023-04-03T01:16:23;100841.70;;;0.03;70.53
36254;BME280;22291;52.250;21.228;2023-04-03T01:18:49;100837.05;;;-0.02;70.49
36254;BME280;22291;52.250;21.228;2023-04-03T01:24:24;100849.63;;;-0.09;70.23
36254;BME280;22291;52.250;21.228;2023-04-03T01:27:07;100855.39;;;-0.12;70.33
36254;BME280;22291;52.250;21.228;2023-04-03T01:29:40;100853.92;;;-0.17;70.46
36254;BME280;22291;52.250;21.228;2023-04-03T01:32:09;100863.67;;;-0.21;70.38
36254;BME280;22291;52.250;21.228;2023-04-03T01:34:36;100864.86;;;-0.26;70.47
36254;BME280;22291;52.250;21.228;2023-04-03T01:37:04;100868.56;;;-0.27;70.48
36254;BME280;22291;52.250;21.228;2023-04-03T01:39:30;100874.02;;;-0.31;70.47
36254;BME280;22291;52.250;21.228;2023-04-03T01:41:56;100877.95;;;-0.33;70.59
36254;BME280;22291;52.250;21.228;2023-04-03T01:44:24;100879.72;;;-0.36;70.65
36254;BME280;22291;52.250;21.228;2023-04-03T01:46:50;100878.82;;;-0.40;70.52
36254;BME280;22291;52.250;21.228;2023-04-03T01:49:17;100877.92;;;-0.43;70.60
36254;BME280;22291;52.250;21.228;2023-04-03T01:51:43;100878.67;;;-0.45;70.58
36254;BME280;22291;52.250;21.228;2023-04-03T01:54:09;100884.20;;;-0.46;70.70
36254;BME280;22291;52.250;21.228;2023-04-03T01:56:37;100889.16;;;-0.50;70.75
36254;BME280;22291;52.250;21.228;2023-04-03T01:59:06;100889.31;;;-0.54;70.66
36254;BME280;22291;52.250;21.228;2023-04-03T02:01:32;100894.05;;;-0.56;70.84
36254;BME280;22291;52.250;21.228;2023-04-03T02:03:58;100897.94;;;-0.59;70.72
36254;BME280;22291;52.250;21.228;2023-04-03T02:06:24;100902.36;;;-0.62;70.78
36254;BME280;22291;52.250;21.228;2023-04-03T02:08:52;100898.22;;;-0.67;70.76
36254;BME280;22291;52.250;21.228;2023-04-03T02:11:18;100897.63;;;-0.69;70.90
36254;BME280;22291;52.250;21.228;2023-04-03T02:13:44;100900.44;;;-0.73;70.84
36254;BME280;22291;52.250;21.228;2023-04-03T02:16:12;100903.80;;;-0.75;70.98
36254;BME280;22291;52.250;21.228;2023-04-03T02:18:39;100899.97;;;-0.79;70.97
36254;BME280;22291;52.250;21.228;2023-04-03T02:21:05;100903.27;;;-0.84;70.88
36254;BME280;22291;52.250;21.228;2023-04-03T02:23:31;100906.45;;;-0.84;71.04
36254;BME280;22291;52.250;21.228;2023-04-03T02:26:08;100904.23;;;-0.87;71.02
36254;BME280;22291;52.250;21.228;2023-04-03T02:28:39;100903.86;;;-0.91;71.06
36254;BME280;22291;52.250;21.228;2023-04-03T02:31:08;100908.05;;;-0.92;71.07
36254;BME280;22291;52.250;21.228;2023-04-03T02:33:36;100900.82;;;-0.95;71.16
36254;BME280;22291;52.250;21.228;2023-04-03T02:36:07;100907.37;;;-0.97;71.13
36254;BME280;22291;52.250;21.228;2023-04-03T02:38:36;100908.63;;;-1.00;71.19
36254;BME280;22291;52.250;21.228;2023-04-03T02:41:05;100912.45;;;-1.05;71.21
36254;BME280;22291;52.250;21.228;2023-04-03T02:43:34;100908.68;;;-1.06;71.27
36254;BME280;22291;52.250;21.228;2023-04-03T02:46:03;100913.41;;;-1.08;71.28
36254;BME280;22291;52.250;21.228;2023-04-03T02:48:34;100915.47;;;-1.10;71.43
36254;BME280;22291;52.250;21.228;2023-04-03T02:51:01;100913.23;;;-1.14;71.38
36254;BME280;22291;52.250;21.228;2023-04-03T02:53:27;100916.62;;;-1.16;71.53
36254;BME280;22291;52.250;21.228;2023-04-03T02:55:54;100916.62;;;-1.16;71.58
36254;BME280;22291;52.250;21.228;2023-04-03T02:58:20;100914.89;;;-1.19;71.48
36254;BME280;22291;52.250;21.228;2023-04-03T03:00:46;100913.80;;;-1.21;71.58
36254;BME280;22291;52.250;21.228;2023-04-03T03:03:12;100917.38;;;-1.24;71.67
36254;BME280;22291;52.250;21.228;2023-04-03T03:05:40;100915.77;;;-1.25;71.68
36254;BME280;22291;52.250;21.228;2023-04-03T03:08:06;100917.52;;;-1.28;71.80
36254;BME280;22291;52.250;21.228;2023-04-03T03:10:33;100915.08;;;-1.30;71.80
36254;BME280;22291;52.250;21.228;2023-04-03T03:12:59;100917.45;;;-1.31;72.11
36254;BME280;22291;52.250;21.228;2023-04-03T03:15:25;100911.23;;;-1.34;71.99
36254;BME280;22291;52.250;21.228;2023-04-03T03:17:52;100921.27;;;-1.36;71.97
36254;BME280;22291;52.250;21.228;2023-04-03T03:20:18;100926.16;;;-1.40;72.08
36254;BME280;22291;52.250;21.228;2023-04-03T03:22:46;100929.33;;;-1.40;72.15
36254;BME280;22291;52.250;21.228;2023-04-03T03:25:13;100918.86;;;-1.44;72.15
36254;BME280;22291;52.250;21.228;2023-04-03T03:27:40;100922.52;;;-1.45;72.20
36254;BME280;22291;52.250;21.228;2023-04-03T03:30:10;100921.13;;;-1.48;72.39
36254;BME280;22291;52.250;21.228;2023-04-03T03:32:37;100925.31;;;-1.49;72.30
36254;BME280;22291;52.250;21.228;2023-04-03T03:35:07;100929.20;;;-1.52;72.37
36254;BME280;22291;52.250;21.228;2023-04-03T03:37:34;100928.60;;;-1.54;72.54
36254;BME280;22291;52.250;21.228;2023-04-03T03:40:05;100933.80;;;-1.57;72.57
36254;BME280;22291;52.250;21.228;2023-04-03T03:42:32;100935.86;;;-1.59;72.66
36254;BME280;22291;52.250;21.228;2023-04-03T03:44:58;100934.16;;;-1.62;72.68
36254;BME280;22291;52.250;21.228;2023-04-03T03:47:24;100929.78;;;-1.66;72.74
36254;BME280;22291;52.250;21.228;2023-04-03T03:49:52;100940.33;;;-1.68;72.79
36254;BME280;22291;52.250;21.228;2023-04-03T03:52:18;100940.22;;;-1.71;72.85
36254;BME280;22291;52.250;21.228;2023-04-03T03:54:46;100938.30;;;-1.73;73.01
36254;BME280;22291;52.250;21.228;2023-04-03T03:57:15;100946.46;;;-1.75;73.10
36254;BME280;22291;52.250;21.228;2023-04-03T03:59:42;100945.03;;;-1.77;73.11
36254;BME280;22291;52.250;21.228;2023-04-03T04:02:12;100947.89;;;-1.79;73.30
36254;BME280;22291;52.250;21.228;2023-04-03T04:04:38;100942.20;;;-1.82;73.26
36254;BME280;22291;52.250;21.228;2023-04-03T04:07:04;100945.05;;;-1.84;73.35
36254;BME280;22291;52.250;21.228;2023-04-03T04:09:30;100954.05;;;-1.85;73.37
36254;BME280;22291;52.250;21.228;2023-04-03T04:11:56;100953.45;;;-1.87;73.51
36254;BME280;22291;52.250;21.228;2023-04-03T04:14:23;100951.61;;;-1.86;73.51
36254;BME280;22291;52.250;21.228;2023-04-03T04:16:50;100954.98;;;-1.89;73.62
36254;BME280;22291;52.250;21.228;2023-04-03T04:19:17;100960.50;;;-1.90;73.62
36254;BME280;22291;52.250;21.228;2023-04-03T04:21:43;100962.84;;;-1.91;73.76
36254;BME280;22291;52.250;21.228;2023-04-03T04:24:11;100966.22;;;-1.93;73.72
36254;BME280;22291;52.250;21.228;2023-04-03T04:26:37;100966.01;;;-1.92;74.02
36254;BME280;22291;52.250;21.228;2023-04-03T04:29:03;100965.20;;;-1.92;73.87
36254;BME280;22291;52.250;21.228;2023-04-03T04:31:29;100968.34;;;-1.93;73.94
36254;BME280;22291;52.250;21.228;2023-04-03T04:33:55;100971.52;;;-1.93;73.97
36254;BME280;22291;52.250;21.228;2023-04-03T04:36:22;100978.67;;;-1.94;73.91
36254;BME280;22291;52.250;21.228;2023-04-03T04:38:48;100984.78;;;-1.93;74.06
36254;BME280;22291;52.250;21.228;2023-04-03T04:41:13;100981.00;;;-1.95;74.02
36254;BME280;22291;52.250;21.228;2023-04-03T04:43:42;100983.97;;;-1.94;74.06
36254;BME280;22291;52.250;21.228;2023-04-03T04:46:10;100987.22;;;-1.92;74.19
36254;BME280;22291;52.250;21.228;2023-04-03T04:48:38;100987.22;;;-1.92;74.22
36254;BME280;22291;52.250;21.228;2023-04-03T04:51:07;100987.75;;;-1.92;74.15
36254;BME280;22291;52.250;21.228;2023-04-03T04:53:33;100991.00;;;-1.90;74.30
36254;BME280;22291;52.250;21.228;2023-04-03T04:56:02;100989.47;;;-1.89;74.27
36254;BME280;22291;52.250;21.228;2023-04-03T04:58:31;100997.70;;;-1.88;74.37
36254;BME280;22291;52.250;21.228;2023-04-03T05:01:06;100999.86;;;-1.87;74.26
36254;BME280;22291;52.250;21.228;2023-04-03T05:03:37;101000.75;;;-1.84;74.30
36254;BME280;22291;52.250;21.228;2023-04-03T05:06:06;101001.27;;;-1.84;74.18
36254;BME280;22291;52.250;21.228;2023-04-03T05:08:32;101004.11;;;-1.79;74.21
36254;BME280;22291;52.250;21.228;2023-04-03T05:10:59;101003.90;;;-1.78;74.29
36254;BME280;22291;52.250;21.228;2023-04-03T05:13:25;101002.97;;;-1.74;74.17
36254;BME280;22291;52.250;21.228;2023-04-03T05:15:52;101006.73;;;-1.73;74.05
36254;BME280;22291;52.250;21.228;2023-04-03T05:18:18;101007.55;;;-1.72;74.10
36254;BME280;22291;52.250;21.228;2023-04-03T05:20:52;101013.55;;;-1.67;74.16
36254;BME280;22291;52.250;21.228;2023-04-03T05:23:20;101006.59;;;-1.62;74.11
36254;BME280;22291;52.250;21.228;2023-04-03T05:25:46;101017.91;;;-1.57;73.98
36254;BME280;22291;52.250;21.228;2023-04-03T05:28:14;101017.36;;;-1.50;74.12
36254;BME280;22291;52.250;21.228;2023-04-03T05:30:41;101013.55;;;-1.45;74.15
36254;BME280;22291;52.250;21.228;2023-04-03T05:33:07;101017.09;;;-1.35;73.87
36254;BME280;22291;52.250;21.228;2023-04-03T05:35:36;101031.24;;;-1.25;73.91
36254;BME280;22291;52.250;21.228;2023-04-03T05:38:08;101029.95;;;-1.16;73.87
36254;BME280;22291;52.250;21.228;2023-04-03T05:40:35;101024.99;;;-1.06;73.71
36254;BME280;22291;52.250;21.228;2023-04-03T05:43:05;101034.63;;;-0.96;73.45
36254;BME280;22291;52.250;21.228;2023-04-03T05:45:31;101026.89;;;-0.81;73.38
36254;BME280;22291;52.250;21.228;2023-04-03T05:47:58;101029.95;;;-0.68;73.21
36254;BME280;22291;52.250;21.228;2023-04-03T05:50:24;101033.03;;;-0.55;73.22
36254;BME280;22291;52.250;21.228;2023-04-03T05:53:03;101043.73;;;-0.37;73.12
36254;BME280;22291;52.250;21.228;2023-04-03T05:55:29;101046.06;;;-0.22;72.85
36254;BME280;22291;52.250;21.228;2023-04-03T05:57:57;101036.31;;;-0.01;72.66
36254;BME280;22291;52.250;21.228;2023-04-03T06:00:24;101038.47;;;0.18;71.93
36254;BME280;22291;52.250;21.228;2023-04-03T06:02:51;101043.66;;;0.32;71.53
36254;BME280;22291;52.250;21.228;2023-04-03T06:05:18;101032.47;;;0.51;70.99
36254;BME280;22291;52.250;21.228;2023-04-03T06:07:44;101051.39;;;0.70;71.17
36254;BME280;22291;52.250;21.228;2023-04-03T06:10:12;101052.08;;;0.96;70.93
36254;BME280;22291;52.250;21.228;2023-04-03T06:12:40;101044.61;;;1.17;70.78
36254;BME280;22291;52.250;21.228;2023-04-03T06:15:10;101049.20;;;1.40;69.42
36254;BME280;22291;52.250;21.228;2023-04-03T06:17:37;101050.41;;;1.58;68.98
36254;BME280;22291;52.250;21.228;2023-04-03T06:20:07;101048.98;;;1.77;68.16
36254;BME280;22291;52.250;21.228;2023-04-03T06:22:36;101057.18;;;1.96;68.08
36254;BME280;22291;52.250;21.228;2023-04-03T06:45:44;101070.87;;;3.36;64.18
36254;BME280;22291;52.250;21.228;2023-04-03T06:48:10;101075.55;;;3.60;63.81
36254;BME280;22291;52.250;21.228;2023-04-03T06:50:37;101062.88;;;3.89;63.17
36254;BME280;22291;52.250;21.228;2023-04-03T06:53:04;101075.22;;;4.10;62.63
36254;BME280;22291;52.250;21.228;2023-04-03T06:55:31;101080.61;;;4.32;62.50
36254;BME280;22291;52.250;21.228;2023-04-03T06:57:57;101073.67;;;4.56;62.02
36254;BME280;22291;52.250;21.228;2023-04-03T07:00:24;101077.69;;;4.78;62.15
36254;BME280;22291;52.250;21.228;2023-04-03T07:02:50;101080.94;;;5.04;61.17
36254;BME280;22291;52.250;21.228;2023-04-03T07:05:17;101075.81;;;5.30;60.85
36254;BME280;22291;52.250;21.228;2023-04-03T07:07:44;101085.77;;;5.65;61.57
36254;BME280;22291;52.250;21.228;2023-04-03T07:10:10;101087.39;;;6.01;60.43
36254;BME280;22291;52.250;21.228;2023-04-03T07:12:37;101083.48;;;6.21;59.38
36254;BME280;22291;52.250;21.228;2023-04-03T07:15:05;101088.73;;;6.46;59.43
36254;BME280;22291;52.250;21.228;2023-04-03T07:17:32;101099.59;;;6.74;58.01
36254;BME280;22291;52.250;21.228;2023-04-03T07:19:59;101089.95;;;6.86;57.14
36254;BME280;22291;52.250;21.228;2023-04-03T07:22:25;101092.14;;;6.99;57.21
36254;BME280;22291;52.250;21.228;2023-04-03T07:24:52;101115.08;;;7.25;56.59
36254;BME280;22291;52.250;21.228;2023-04-03T07:27:19;101105.95;;;7.44;55.89
36254;BME280;22291;52.250;21.228;2023-04-03T07:29:45;101108.38;;;7.61;55.36
36254;BME280;22291;52.250;21.228;2023-04-03T07:32:14;101108.40;;;7.69;54.18
36254;BME280;22291;52.250;21.228;2023-04-03T07:34:41;101111.63;;;7.78;52.98
36254;BME280;22291;52.250;21.228;2023-04-03T07:37:07;101108.39;;;7.89;52.82
36254;BME280;22291;52.250;21.228;2023-04-03T07:39:35;101111.86;;;8.13;53.62
36254;BME280;22291;52.250;21.228;2023-04-03T07:42:02;101109.92;;;8.44;52.92
36254;BME280;22291;52.250;21.228;2023-04-03T07:44:29;101111.77;;;8.59;51.48
36254;BME280;22291;52.250;21.228;2023-04-03T07:46:55;101116.57;;;8.70;51.37
36254;BME280;22291;52.250;21.228;2023-04-03T07:49:22;101109.73;;;8.93;51.56
36254;BME280;22291;52.250;21.228;2023-04-03T07:51:50;101115.51;;;9.21;51.17
36254;BME280;22291;52.250;21.228;2023-04-03T07:54:17;101116.97;;;9.45;49.41
36254;BME280;22291;52.250;21.228;2023-04-03T07:56:43;101115.48;;;9.28;47.84
36254;BME280;22291;52.250;21.228;2023-04-03T07:59:10;101109.31;;;9.20;48.36
36254;BME280;22291;52.250;21.228;2023-04-03T08:01:37;101114.02;;;9.41;49.11
36254;BME280;22291;52.250;21.228;2023-04-03T08:04:03;101117.12;;;9.64;48.34
36254;BME280;22291;52.250;21.228;2023-04-03T08:06:31;101117.52;;;9.81;46.64
36254;BME280;22291;52.250;21.228;2023-04-03T08:08:59;101110.00;;;9.76;45.97
36254;BME280;22291;52.250;21.228;2023-04-03T08:11:25;101119.65;;;10.14;47.43
36254;BME280;22291;52.250;21.228;2023-04-03T08:13:52;101115.18;;;10.55;47.05
36254;BME280;22291;52.250;21.228;2023-04-03T08:16:21;101110.61;;;11.15;46.82
36254;BME280;22291;52.250;21.228;2023-04-03T08:18:48;101126.17;;;11.61;44.90
36254;BME280;22291;52.250;21.228;2023-04-03T08:21:15;101121.45;;;11.86;44.13
36254;BME280;22291;52.250;21.228;2023-04-03T08:23:41;101116.77;;;12.22;43.88
36254;BME280;22291;52.250;21.228;2023-04-03T08:26:10;101133.59;;;12.51;43.10
36254;BME280;22291;52.250;21.228;2023-04-03T08:28:38;101121.80;;;12.70;42.77
36254;BME280;22291;52.250;21.228;2023-04-03T08:31:06;101126.18;;;12.82;42.88
36254;BME280;22291;52.250;21.228;2023-04-03T08:33:37;101130.85;;;12.79;42.74
36254;BME280;22291;52.250;21.228;2023-04-03T08:36:06;101134.38;;;12.52;40.75
36254;BME280;22291;52.250;21.228;2023-04-03T08:38:34;101140.11;;;12.37;40.11
36254;BME280;22291;52.250;21.228;2023-04-03T08:50:00;101128.19;;;11.36;40.49
36254;BME280;22291;52.250;21.228;2023-04-03T08:58:17;101125.91;;;12.26;40.76
36254;BME280;22291;52.250;21.228;2023-04-03T09:03:42;101130.12;;;11.69;39.45
36254;BME280;22291;52.250;21.228;2023-04-03T09:06:23;101138.50;;;11.53;38.59
36254;BME280;22291;52.250;21.228;2023-04-03T09:20:27;101133.22;;;13.08;37.89
36254;BME280;22291;52.250;21.228;2023-04-03T09:23:31;101121.39;;;12.07;36.89
36254;BME280;22291;52.250;21.228;2023-04-03T09:26:14;101138.92;;;11.61;37.73
36254;BME280;22291;52.250;21.228;2023-04-03T09:28:58;101126.03;;;11.36;39.00
36254;BME280;22291;52.250;21.228;2023-04-03T09:31:35;101137.70;;;12.19;39.12
36254;BME280;22291;52.250;21.228;2023-04-03T09:34:05;101133.45;;;12.43;38.79
36254;BME280;22291;52.250;21.228;2023-04-03T09:36:49;101129.42;;;12.82;38.03
36254;BME280;22291;52.250;21.228;2023-04-03T09:39:29;101129.06;;;13.25;37.76
36254;BME280;22291;52.250;21.228;2023-04-03T09:42:04;101142.79;;;12.92;36.74
36254;BME280;22291;52.250;21.228;2023-04-03T09:44:56;101124.80;;;12.96;37.09
36254;BME280;22291;52.250;21.228;2023-04-03T09:47:30;101127.70;;;13.73;38.23
36254;BME280;22291;52.250;21.228;2023-04-03T09:50:20;101129.61;;;14.55;37.83
36254;BME280;22291;52.250;21.228;2023-04-03T09:52:51;101132.92;;;14.23;36.52
36254;BME280;22291;52.250;21.228;2023-04-03T09:55:21;101125.53;;;13.38;35.47
36254;BME280;22291;52.250;21.228;2023-04-03T09:57:50;101146.79;;;12.42;34.33
36254;BME280;22291;52.250;21.228;2023-04-03T10:00:25;101141.10;;;12.10;35.37
36254;BME280;22291;52.250;21.228;2023-04-03T10:02:56;101138.95;;;12.68;36.97
36254;BME280;22291;52.250;21.228;2023-04-03T10:05:30;101131.08;;;13.90;37.25
36254;BME280;22291;52.250;21.228;2023-04-03T10:10:44;101122.95;;;14.61;34.32
36254;BME280;22291;52.250;21.228;2023-04-03T10:13:17;101138.13;;;13.68;33.66
36254;BME280;22291;52.250;21.228;2023-04-03T10:21:26;101131.91;;;11.40;35.22
36254;BME280;22291;52.250;21.228;2023-04-03T10:26:57;101138.56;;;11.84;35.59
36254;BME280;22291;52.250;21.228;2023-04-03T10:38:22;101136.53;;;10.32;36.03
36254;BME280;22291;52.250;21.228;2023-04-03T10:44:20;101131.70;;;9.63;35.66
36254;BME280;22291;52.250;21.228;2023-04-03T10:52:30;101135.70;;;9.31;37.12
36254;BME280;22291;52.250;21.228;2023-04-03T10:55:09;101135.87;;;9.03;36.65
36254;BME280;22291;52.250;21.228;2023-04-03T10:57:39;101131.89;;;8.85;36.57
36254;BME280;22291;52.250;21.228;2023-04-03T11:00:26;101127.42;;;8.57;36.95
36254;BME280;22291;52.250;21.228;2023-04-03T11:03:14;101126.00;;;8.77;37.59
36254;BME280;22291;52.250;21.228;2023-04-03T11:05:52;101114.30;;;9.40;37.38
36254;BME280;22291;52.250;21.228;2023-04-03T11:10:59;101130.05;;;9.27;36.76
36254;BME280;22291;52.250;21.228;2023-04-03T11:13:49;101119.62;;;9.13;36.68
36254;BME280;22291;52.250;21.228;2023-04-03T11:16:26;101123.27;;;8.83;36.49
36254;BME280;22291;52.250;21.228;2023-04-03T11:30:33;101124.44;;;10.22;37.83
36254;BME280;22291;52.250;21.228;2023-04-03T11:33:17;101114.34;;;10.57;36.20
36254;BME280;22291;52.250;21.228;2023-04-03T11:35:46;101120.55;;;10.81;36.47
36254;BME280;22291;52.250;21.228;2023-04-03T11:38:21;101111.48;;;11.48;36.25
36254;BME280;22291;52.250;21.228;2023-04-03T11:40:57;101106.19;;;11.92;35.21
36254;BME280;22291;52.250;21.228;2023-04-03T11:43:29;101100.33;;;12.15;35.05
36254;BME280;22291;52.250;21.228;2023-04-03T11:45:59;101101.94;;;11.70;34.07
36254;BME280;22291;52.250;21.228;2023-04-03T11:59:48;101096.78;;;10.30;35.70
36254;BME280;22291;52.250;21.228;2023-04-03T12:02:36;101101.13;;;9.99;35.66
36254;BME280;22291;52.250;21.228;2023-04-03T12:05:28;101113.31;;;9.67;35.34
36254;BME280;22291;52.250;21.228;2023-04-03T12:11:13;101097.83;;;10.58;36.75
36254;BME280;22291;52.250;21.228;2023-04-03T12:22:13;101102.30;;;11.80;33.77
36254;BME280;22291;52.250;21.228;2023-04-03T12:24:41;101095.97;;;12.17;34.33
36254;BME280;22291;52.250;21.228;2023-04-03T12:27:33;101095.18;;;12.72;34.42
36254;BME280;22291;52.250;21.228;2023-04-03T12:36:02;101116.11;;;12.27;32.25
36254;BME280;22291;52.250;21.228;2023-04-03T12:41:36;101097.72;;;10.88;32.79
36254;BME280;22291;52.250;21.228;2023-04-03T12:46:54;101092.00;;;11.11;34.53
36254;BME280;22291;52.250;21.228;2023-04-03T12:51:59;101090.38;;;11.48;34.16
36254;BME280;22291;52.250;21.228;2023-04-03T12:57:27;101101.45;;;10.73;33.27
36254;BME280;22291;52.250;21.228;2023-04-03T12:59:44;101098.91;;;10.33;33.99
36254;BME280;22291;52.250;21.228;2023-04-03T13:02:25;101091.56;;;10.09;33.20
36254;BME280;22291;52.250;21.228;2023-04-03T13:04:58;101088.25;;;9.91;34.24
36254;BME280;22291;52.250;21.228;2023-04-03T13:07:30;101088.25;;;9.91;34.52
36254;BME280;22291;52.250;21.228;2023-04-03T13:12:52;101091.86;;;9.47;34.18
36254;BME280;22291;52.250;21.228;2023-04-03T13:15:30;101091.86;;;9.05;34.13
36254;BME280;22291;52.250;21.228;2023-04-03T13:17:59;101094.77;;;8.61;34.80
36254;BME280;22291;52.250;21.228;2023-04-03T13:20:31;101098.87;;;8.35;35.43
36254;BME280;22291;52.250;21.228;2023-04-03T13:23:02;101097.83;;;8.18;35.42
36254;BME280;22291;52.250;21.228;2023-04-03T13:25:36;101105.38;;;8.14;36.10
36254;BME280;22291;52.250;21.228;2023-04-03T13:28:09;101089.73;;;8.31;36.29
36254;BME280;22291;52.250;21.228;2023-04-03T13:30:40;101082.72;;;8.33;36.46
36254;BME280;22291;52.250;21.228;2023-04-03T13:33:21;101094.86;;;8.28;35.96
36254;BME280;22291;52.250;21.228;2023-04-03T13:35:55;101090.02;;;8.17;36.18
36254;BME280;22291;52.250;21.228;2023-04-03T13:38:26;101084.13;;;7.99;35.91
36254;BME280;22291;52.250;21.228;2023-04-03T13:40:59;101089.00;;;7.87;36.35
36254;BME280;22291;52.250;21.228;2023-04-03T13:43:31;101085.23;;;7.67;35.99
36254;BME280;22291;52.250;21.228;2023-04-03T13:46:20;101080.92;;;7.43;36.12
36254;BME280;22291;52.250;21.228;2023-04-03T13:48:43;101081.98;;;7.29;36.68
36254;BME280;22291;52.250;21.228;2023-04-03T13:56:23;101081.40;;;7.04;37.33
36254;BME280;22291;52.250;21.228;2023-04-03T13:59:05;101086.48;;;6.90;37.52
36254;BME280;22291;52.250;21.228;2023-04-03T14:02:17;101094.52;;;6.80;37.83
36254;BME280;22291;52.250;21.228;2023-04-03T14:04:17;101093.72;;;6.80;38.31
36254;BME280;22291;52.250;21.228;2023-04-03T14:06:46;101093.98;;;6.86;38.65
36254;BME280;22291;52.250;21.228;2023-04-03T14:09:14;101094.57;;;6.93;38.85
36254;BME280;22291;52.250;21.228;2023-04-03T14:11:43;101089.20;;;7.01;38.50
36254;BME280;22291;52.250;21.228;2023-04-03T14:14:24;101089.45;;;6.99;38.38
36254;BME280;22291;52.250;21.228;2023-04-03T14:16:52;101083.55;;;7.02;38.45
36254;BME280;22291;52.250;21.228;2023-04-03T14:19:29;101091.34;;;7.01;38.09
36254;BME280;22291;52.250;21.228;2023-04-03T14:21:56;101080.58;;;7.01;38.59
36254;BME280;22291;52.250;21.228;2023-04-03T14:24:24;101086.52;;;7.06;38.81
36254;BME280;22291;52.250;21.228;2023-04-03T14:26:54;101093.25;;;7.03;38.84
36254;BME280;22291;52.250;21.228;2023-04-03T14:29:21;101089.43;;;6.89;38.42
36254;BME280;22291;52.250;21.228;2023-04-03T14:31:49;101086.16;;;6.79;38.38
36254;BME280;22291;52.250;21.228;2023-04-03T14:34:17;101082.65;;;6.66;38.45
36254;BME280;22291;52.250;21.228;2023-04-03T14:36:44;101082.89;;;6.59;38.75
36254;BME280;22291;52.250;21.228;2023-04-03T14:39:16;101090.38;;;6.54;38.89
36254;BME280;22291;52.250;21.228;2023-04-03T14:41:43;101087.67;;;6.49;38.80
36254;BME280;22291;52.250;21.228;2023-04-03T14:44:11;101083.56;;;6.36;38.85
36254;BME280;22291;52.250;21.228;2023-04-03T14:46:41;101083.00;;;6.29;38.99
36254;BME280;22291;52.250;21.228;2023-04-03T14:49:24;101088.06;;;6.21;38.91
36254;BME280;22291;52.250;21.228;2023-04-03T14:51:52;101084.80;;;6.13;38.96
36254;BME280;22291;52.250;21.228;2023-04-03T14:54:21;101077.20;;;6.03;39.49
36254;BME280;22291;52.250;21.228;2023-04-03T14:56:51;101086.24;;;5.94;39.28
36254;BME280;22291;52.250;21.228;2023-04-03T14:59:18;101093.43;;;5.83;39.35
36254;BME280;22291;52.250;21.228;2023-04-03T15:01:48;101099.02;;;5.76;39.64
36254;BME280;22291;52.250;21.228;2023-04-03T15:04:17;101096.04;;;5.75;39.79
36254;BME280;22291;52.250;21.228;2023-04-03T15:06:45;101096.58;;;5.75;40.14
36254;BME280;22291;52.250;21.228;2023-04-03T15:09:22;101097.38;;;5.75;40.10
36254;BME280;22291;52.250;21.228;2023-04-03T15:11:51;101094.45;;;5.77;39.86
36254;BME280;22291;52.250;21.228;2023-04-03T15:14:19;101091.42;;;5.68;39.85
36254;BME280;22291;52.250;21.228;2023-04-03T15:16:47;101090.87;;;5.66;39.82
36254;BME280;22291;52.250;21.228;2023-04-03T15:19:15;101086.56;;;5.63;39.96
36254;BME280;22291;52.250;21.228;2023-04-03T15:21:41;101090.59;;;5.63;39.92
36254;BME280;22291;52.250;21.228;2023-04-03T15:24:09;101083.00;;;5.54;40.12